sensor_id;sensor_type;location;lat;lon;timestamp;P1;durP1;ratioP1;P2;durP2;ratioP2
6598;SDS011;3335;43.198;27.918;2023-04-03T00:00:32;13.13;;;8.00;;
6598;SDS011;3335;43.198;27.918;2023-04-03T00:02:59;11.63;;;7.73;;
6598;SDS011;3335;43.198;27.918;2023-04-03T00:05:26;18.13;;;7.63;;
6598;SDS011;3335;43.198;27.918;2023-04-03T00:07:55;13.43;;;7.83;;
6598;SDS011;3335;43.198;27.918;2023-04-03T00:10:21;12.33;;;7.50;;
6598;SDS011;3335;43.198;27.918;2023-04-03T00:12:48;14.67;;;8.60;;
6598;SDS011;3335;43.198;27.918;2023-04-03T00:15:15;16.67;;;8.03;;
6598;SDS011;3335;43.198;27.918;2023-04-03T00:17:42;17.97;;;7.70;;
6598;SDS011;3335;43.198;27.918;2023-04-03T00:20:09;16.93;;;8.50;;
6598;SDS011;3335;43.198;27.918;2023-04-03T00:22:36;14.53;;;7.73;;
6598;SDS011;3335;43.198;27.918;2023-04-03T00:25:05;15.23;;;7.27;;
6598;SDS011;3335;43.198;27.918;2023-04-03T00:27:33;11.23;;;7.50;;
6598;SDS011;3335;43.198;27.918;2023-04-03T00:30:02;11.20;;;7.87;;
6598;SDS011;3335;43.198;27.918;2023-04-03T00:32:29;11.93;;;7.17;;
6598;SDS011;3335;43.198;27.918;2023-04-03T00:34:56;9.80;;;6.70;;
6598;SDS011;3335;43.198;27.918;2023-04-03T00:37:23;11.33;;;6.73;;
6598;SDS011;3335;43.198;27.918;2023-04-03T00:39:50;10.30;;;6.97;;
6598;SDS011;3335;43.198;27.918;2023-04-03T00:42:18;10.93;;;7.13;;
6598;SDS011;3335;43.198;27.918;2023-04-03T00:47:54;13.93;;;6.77;;
6598;SDS011;3335;43.198;27.918;2023-04-03T00:50:24;16.10;;;6.83;;
6598;SDS011;3335;43.198;27.918;2023-04-03T00:52:52;11.60;;;6.80;;
6598;SDS011;3335;43.198;27.918;2023-04-03T00:55:20;10.23;;;6.40;;
6598;SDS011;3335;43.198;27.918;2023-04-03T00:57:48;12.00;;;6.80;;
6598;SDS011;3335;43.198;27.918;2023-04-03T01:00:16;10.37;;;6.00;;
6598;SDS011;3335;43.198;27.918;2023-04-03T01:02:47;9.97;;;6.63;;
6598;SDS011;3335;43.198;27.918;2023-04-03T01:05:15;13.63;;;7.47;;
6598;SDS011;3335;43.198;27.918;2023-04-03T01:07:44;8.90;;;6.60;;
6598;SDS011;3335;43.198;27.918;2023-04-03T01:10:12;11.20;;;7.17;;
6598;SDS011;3335;43.198;27.918;2023-04-03T01:12:42;11.47;;;7.43;;
6598;SDS011;3335;43.198;27.918;2023-04-03T01:15:13;12.23;;;7.67;;
6598;SDS011;3335;43.198;27.918;2023-04-03T01:17:42;14.73;;;8.13;;
6598;SDS011;3335;43.198;27.918;2023-04-03T01:23:12;16.43;;;8.87;;
6598;SDS011;3335;43.198;27.918;2023-04-03T01:25:54;13.00;;;8.43;;
6598;SDS011;3335;43.198;27.918;2023-04-03T01:28:23;12.10;;;8.40;;
6598;SDS011;3335;43.198;27.918;2023-04-03T01:31:00;13.90;;;8.73;;
6598;SDS011;3335;43.198;27.918;2023-04-03T01:33:37;14.33;;;7.63;;
6598;SDS011;3335;43.198;27.918;2023-04-03T01:36:04;11.00;;;7.63;;
6598;SDS011;3335;43.198;27.918;2023-04-03T01:38:32;14.30;;;8.03;;
6598;SDS011;3335;43.198;27.918;2023-04-03T01:41:00;15.33;;;9.57;;
6598;SDS011;3335;43.198;27.918;2023-04-03T01:43:27;24.20;;;15.53;;
6598;SDS011;3335;43.198;27.918;2023-04-03T01:45:53;54.37;;;35.27;;
6598;SDS011;3335;43.198;27.918;2023-04-03T01:48:20;59.03;;;36.93;;
6598;SDS011;3335;43.198;27.918;2023-04-03T01:50:49;43.57;;;28.57;;
6598;SDS011;3335;43.198;27.918;2023-04-03T01:53:16;35.43;;;22.17;;
6598;SDS011;3335;43.198;27.918;2023-04-03T01:55:43;27.53;;;18.07;;
6598;SDS011;3335;43.198;27.918;2023-04-03T01:58:10;25.00;;;16.33;;
6598;SDS011;3335;43.198;27.918;2023-04-03T02:00:37;30.30;;;15.70;;
6598;SDS011;3335;43.198;27.918;2023-04-03T02:03:04;19.30;;;12.60;;
6598;SDS011;3335;43.198;27.918;2023-04-03T02:05:32;24.30;;;12.47;;
6598;SDS011;3335;43.198;27.918;2023-04-03T02:08:00;22.57;;;12.73;;
6598;SDS011;3335;43.198;27.918;2023-04-03T02:10:27;26.97;;;14.27;;
6598;SDS011;3335;43.198;27.918;2023-04-03T02:12:54;30.70;;;14.57;;
6598;SDS011;3335;43.198;27.918;2023-04-03T02:15:21;32.93;;;15.33;;
6598;SDS011;3335;43.198;27.918;2023-04-03T02:17:47;53.20;;;15.77;;
6598;SDS011;3335;43.198;27.918;2023-04-03T02:20:15;38.23;;;17.60;;
6598;SDS011;3335;43.198;27.918;2023-04-03T02:22:42;37.00;;;17.63;;
6598;SDS011;3335;43.198;27.918;2023-04-03T02:25:10;32.33;;;18.13;;
6598;SDS011;3335;43.198;27.918;2023-04-03T02:27:37;48.30;;;20.97;;
6598;SDS011;3335;43.198;27.918;2023-04-03T02:30:05;43.20;;;19.03;;
6598;SDS011;3335;43.198;27.918;2023-04-03T02:32:34;40.73;;;18.57;;
6598;SDS011;3335;43.198;27.918;2023-04-03T02:35:01;36.67;;;20.27;;
6598;SDS011;3335;43.198;27.918;2023-04-03T02:37:28;35.63;;;18.80;;
6598;SDS011;3335;43.198;27.918;2023-04-03T02:39:55;32.70;;;18.23;;
6598;SDS011;3335;43.198;27.918;2023-04-03T02:42:23;38.20;;;18.40;;
6598;SDS011;3335;43.198;27.918;2023-04-03T02:44:50;32.43;;;18.37;;
6598;SDS011;3335;43.198;27.918;2023-04-03T02:47:17;35.10;;;19.27;;
6598;SDS011;3335;43.198;27.918;2023-04-03T02:49:44;43.20;;;21.77;;
6598;SDS011;3335;43.198;27.918;2023-04-03T02:52:11;49.37;;;22.07;;
6598;SDS011;3335;43.198;27.918;2023-04-03T02:54:38;45.57;;;21.83;;
6598;SDS011;3335;43.198;27.918;2023-04-03T02:57:05;35.77;;;18.37;;
6598;SDS011;3335;43.198;27.918;2023-04-03T02:59:35;41.20;;;20.70;;
6598;SDS011;3335;43.198;27.918;2023-04-03T03:02:02;47.17;;;23.60;;
6598;SDS011;3335;43.198;27.918;2023-04-03T03:04:29;45.17;;;23.13;;
6598;SDS011;3335;43.198;27.918;2023-04-03T03:06:56;40.07;;;19.83;;
6598;SDS011;3335;43.198;27.918;2023-04-03T03:09:23;30.77;;;17.67;;
6598;SDS011;3335;43.198;27.918;2023-04-03T03:11:51;38.50;;;17.77;;
6598;SDS011;3335;43.198;27.918;2023-04-03T03:14:18;33.27;;;17.97;;
6598;SDS011;3335;43.198;27.918;2023-04-03T03:16:47;35.83;;;17.83;;
6598;SDS011;3335;43.198;27.918;2023-04-03T03:19:14;35.03;;;18.97;;
6598;SDS011;3335;43.198;27.918;2023-04-03T03:21:41;31.27;;;18.70;;
6598;SDS011;3335;43.198;27.918;2023-04-03T03:24:08;39.20;;;19.80;;
6598;SDS011;3335;43.198;27.918;2023-04-03T03:26:35;36.53;;;19.87;;
6598;SDS011;3335;43.198;27.918;2023-04-03T03:29:02;34.10;;;19.53;;
6598;SDS011;3335;43.198;27.918;2023-04-03T03:31:29;33.03;;;19.83;;
6598;SDS011;3335;43.198;27.918;2023-04-03T03:33:57;34.33;;;20.03;;
6598;SDS011;3335;43.198;27.918;2023-04-03T03:36:24;34.17;;;19.63;;
6598;SDS011;3335;43.198;27.918;2023-04-03T03:38:51;35.63;;;19.37;;
6598;SDS011;3335;43.198;27.918;2023-04-03T03:41:18;34.97;;;18.83;;
6598;SDS011;3335;43.198;27.918;2023-04-03T03:43:44;31.07;;;17.43;;
6598;SDS011;3335;43.198;27.918;2023-04-03T03:46:11;35.90;;;18.87;;
6598;SDS011;3335;43.198;27.918;2023-04-03T03:48:39;38.30;;;19.80;;
6598;SDS011;3335;43.198;27.918;2023-04-03T03:51:07;38.47;;;21.80;;
6598;SDS011;3335;43.198;27.918;2023-04-03T03:53:34;42.80;;;22.07;;
6598;SDS011;3335;43.198;27.918;2023-04-03T03:56:01;36.47;;;20.07;;
6598;SDS011;3335;43.198;27.918;2023-04-03T03:58:28;39.23;;;20.60;;
6598;SDS011;3335;43.198;27.918;2023-04-03T04:00:55;37.73;;;21.10;;
6598;SDS011;3335;43.198;27.918;2023-04-03T04:03:22;38.20;;;20.10;;
6598;SDS011;3335;43.198;27.918;2023-04-03T04:05:49;33.97;;;20.73;;
6598;SDS011;3335;43.198;27.918;2023-04-03T04:08:17;39.50;;;23.17;;
6598;SDS011;3335;43.198;27.918;2023-04-03T04:10:44;46.43;;;26.07;;
6598;SDS011;3335;43.198;27.918;2023-04-03T04:13:11;52.07;;;27.60;;
6598;SDS011;3335;43.198;27.918;2023-04-03T04:15:38;49.73;;;26.10;;
6598;SDS011;3335;43.198;27.918;2023-04-03T04:18:05;46.67;;;27.23;;
6598;SDS011;3335;43.198;27.918;2023-04-03T04:20:32;43.67;;;25.57;;
6598;SDS011;3335;43.198;27.918;2023-04-03T04:22:59;44.57;;;23.90;;
6598;SDS011;3335;43.198;27.918;2023-04-03T04:25:28;41.27;;;24.37;;
6598;SDS011;3335;43.198;27.918;2023-04-03T04:27:55;35.27;;;22.10;;
6598;SDS011;3335;43.198;27.918;2023-04-03T04:30:22;39.23;;;20.70;;
6598;SDS011;3335;43.198;27.918;2023-04-03T04:32:48;30.30;;;18.57;;
6598;SDS011;3335;43.198;27.918;2023-04-03T04:35:15;30.87;;;17.70;;
6598;SDS011;3335;43.198;27.918;2023-04-03T04:37:42;27.10;;;15.20;;
6598;SDS011;3335;43.198;27.918;2023-04-03T04:40:10;28.60;;;16.03;;
6598;SDS011;3335;43.198;27.918;2023-04-03T04:42:38;25.80;;;14.97;;
6598;SDS011;3335;43.198;27.918;2023-04-03T04:45:06;23.90;;;14.83;;
6598;SDS011;3335;43.198;27.918;2023-04-03T04:47:33;27.27;;;13.40;;
6598;SDS011;3335;43.198;27.918;2023-04-03T04:50:00;20.57;;;13.37;;
6598;SDS011;3335;43.198;27.918;2023-04-03T04:52:27;28.50;;;15.80;;
6598;SDS011;3335;43.198;27.918;2023-04-03T04:54:54;32.43;;;16.47;;
6598;SDS011;3335;43.198;27.918;2023-04-03T04:57:21;39.33;;;20.77;;
6598;SDS011;3335;43.198;27.918;2023-04-03T04:59:49;40.57;;;20.53;;
6598;SDS011;3335;43.198;27.918;2023-04-03T05:02:16;31.87;;;18.37;;
6598;SDS011;3335;43.198;27.918;2023-04-03T05:04:44;32.77;;;16.93;;
6598;SDS011;3335;43.198;27.918;2023-04-03T05:07:10;28.03;;;14.97;;
6598;SDS011;3335;43.198;27.918;2023-04-03T05:09:37;24.37;;;15.03;;
6598;SDS011;3335;43.198;27.918;2023-04-03T05:12:07;25.10;;;15.20;;
6598;SDS011;3335;43.198;27.918;2023-04-03T05:14:34;24.00;;;14.30;;
6598;SDS011;3335;43.198;27.918;2023-04-03T05:17:02;23.57;;;14.33;;
6598;SDS011;3335;43.198;27.918;2023-04-03T05:22:18;23.73;;;12.63;;
6598;SDS011;3335;43.198;27.918;2023-04-03T05:24:45;27.43;;;13.43;;
6598;SDS011;3335;43.198;27.918;2023-04-03T05:27:12;27.30;;;12.27;;
6598;SDS011;3335;43.198;27.918;2023-04-03T05:29:39;17.10;;;10.80;;
6598;SDS011;3335;43.198;27.918;2023-04-03T05:32:10;22.50;;;11.50;;
6598;SDS011;3335;43.198;27.918;2023-04-03T05:34:37;18.47;;;11.63;;
6598;SDS011;3335;43.198;27.918;2023-04-03T05:37:04;20.20;;;11.00;;
6598;SDS011;3335;43.198;27.918;2023-04-03T05:39:30;22.80;;;11.47;;
6598;SDS011;3335;43.198;27.918;2023-04-03T05:41:58;17.33;;;10.37;;
6598;SDS011;3335;43.198;27.918;2023-04-03T05:44:25;17.87;;;10.27;;
6598;SDS011;3335;43.198;27.918;2023-04-03T05:46:52;23.77;;;12.40;;
6598;SDS011;3335;43.198;27.918;2023-04-03T05:49:20;19.70;;;11.50;;
6598;SDS011;3335;43.198;27.918;2023-04-03T05:51:47;22.00;;;11.00;;
6598;SDS011;3335;43.198;27.918;2023-04-03T05:54:15;21.00;;;12.40;;
6598;SDS011;3335;43.198;27.918;2023-04-03T05:56:45;23.20;;;12.57;;
6598;SDS011;3335;43.198;27.918;2023-04-03T05:59:12;22.43;;;11.33;;
6598;SDS011;3335;43.198;27.918;2023-04-03T06:01:39;21.40;;;12.07;;
6598;SDS011;3335;43.198;27.918;2023-04-03T06:04:06;20.93;;;10.97;;
6598;SDS011;3335;43.198;27.918;2023-04-03T06:06:45;13.60;;;8.37;;
6598;SDS011;3335;43.198;27.918;2023-04-03T06:09:13;19.23;;;9.03;;
6598;SDS011;3335;43.198;27.918;2023-04-03T06:11:41;15.43;;;7.77;;
6598;SDS011;3335;43.198;27.918;2023-04-03T06:14:09;13.27;;;8.73;;
6598;SDS011;3335;43.198;27.918;2023-04-03T06:16:36;12.20;;;7.87;;
6598;SDS011;3335;43.198;27.918;2023-04-03T06:19:04;22.30;;;8.33;;
6598;SDS011;3335;43.198;27.918;2023-04-03T06:21:31;14.33;;;7.73;;
6598;SDS011;3335;43.198;27.918;2023-04-03T06:23:59;13.40;;;6.97;;
6598;SDS011;3335;43.198;27.918;2023-04-03T06:26:27;11.73;;;6.57;;
6598;SDS011;3335;43.198;27.918;2023-04-03T06:28:54;14.07;;;6.40;;
6598;SDS011;3335;43.198;27.918;2023-04-03T06:31:21;16.57;;;6.83;;
6598;SDS011;3335;43.198;27.918;2023-04-03T06:33:48;11.83;;;6.10;;
6598;SDS011;3335;43.198;27.918;2023-04-03T06:36:15;7.83;;;5.40;;
6598;SDS011;3335;43.198;27.918;2023-04-03T06:38:45;8.93;;;5.60;;
6598;SDS011;3335;43.198;27.918;2023-04-03T06:41:14;6.33;;;5.33;;
6598;SDS011;3335;43.198;27.918;2023-04-03T06:43:42;14.60;;;5.90;;
6598;SDS011;3335;43.198;27.918;2023-04-03T06:46:12;11.10;;;4.90;;
6598;SDS011;3335;43.198;27.918;2023-04-03T06:48:41;12.50;;;5.10;;
6598;SDS011;3335;43.198;27.918;2023-04-03T06:51:11;18.63;;;6.33;;
6598;SDS011;3335;43.198;27.918;2023-04-03T06:53:43;15.97;;;6.30;;
6598;SDS011;3335;43.198;27.918;2023-04-03T06:56:11;17.37;;;5.83;;
6598;SDS011;3335;43.198;27.918;2023-04-03T06:58:39;22.87;;;5.90;;
6598;SDS011;3335;43.198;27.918;2023-04-03T07:01:07;15.53;;;6.00;;
6598;SDS011;3335;43.198;27.918;2023-04-03T07:03:34;9.53;;;4.20;;
6598;SDS011;3335;43.198;27.918;2023-04-03T07:06:01;11.17;;;4.63;;
6598;SDS011;3335;43.198;27.918;2023-04-03T07:08:29;10.67;;;4.33;;
6598;SDS011;3335;43.198;27.918;2023-04-03T07:10:56;9.90;;;3.87;;
6598;SDS011;3335;43.198;27.918;2023-04-03T07:13:23;13.80;;;4.67;;
6598;SDS011;3335;43.198;27.918;2023-04-03T07:15:51;10.13;;;4.07;;
6598;SDS011;3335;43.198;27.918;2023-04-03T07:18:18;14.73;;;3.80;;
6598;SDS011;3335;43.198;27.918;2023-04-03T07:20:46;17.20;;;4.33;;
6598;SDS011;3335;43.198;27.918;2023-04-03T07:23:13;9.90;;;4.70;;
6598;SDS011;3335;43.198;27.918;2023-04-03T07:25:42;6.33;;;3.87;;
6598;SDS011;3335;43.198;27.918;2023-04-03T07:28:10;5.50;;;3.80;;
6598;SDS011;3335;43.198;27.918;2023-04-03T07:30:41;7.83;;;4.00;;
6598;SDS011;3335;43.198;27.918;2023-04-03T07:33:10;6.70;;;4.13;;
6598;SDS011;3335;43.198;27.918;2023-04-03T07:35:38;9.63;;;3.97;;
6598;SDS011;3335;43.198;27.918;2023-04-03T07:38:05;8.23;;;3.43;;
6598;SDS011;3335;43.198;27.918;2023-04-03T07:40:32;8.27;;;3.83;;
6598;SDS011;3335;43.198;27.918;2023-04-03T07:43:00;6.27;;;3.40;;
6598;SDS011;3335;43.198;27.918;2023-04-03T07:45:27;8.47;;;3.20;;
6598;SDS011;3335;43.198;27.918;2023-04-03T07:47:54;5.00;;;3.60;;
6598;SDS011;3335;43.198;27.918;2023-04-03T07:50:23;10.17;;;3.23;;
6598;SDS011;3335;43.198;27.918;2023-04-03T07:52:50;3.67;;;3.30;;
6598;SDS011;3335;43.198;27.918;2023-04-03T07:55:19;10.40;;;3.97;;
6598;SDS011;3335;43.198;27.918;2023-04-03T07:57:46;8.97;;;4.23;;
6598;SDS011;3335;43.198;27.918;2023-04-03T08:00:13;8.70;;;4.43;;
6598;SDS011;3335;43.198;27.918;2023-04-03T08:02:42;12.27;;;4.77;;
6598;SDS011;3335;43.198;27.918;2023-04-03T08:05:15;10.80;;;4.97;;
6598;SDS011;3335;43.198;27.918;2023-04-03T08:07:43;11.83;;;4.93;;
6598;SDS011;3335;43.198;27.918;2023-04-03T08:10:11;6.17;;;4.10;;
6598;SDS011;3335;43.198;27.918;2023-04-03T08:12:38;8.67;;;4.63;;
6598;SDS011;3335;43.198;27.918;2023-04-03T08:15:06;7.30;;;4.70;;
6598;SDS011;3335;43.198;27.918;2023-04-03T08:17:34;6.40;;;4.90;;
6598;SDS011;3335;43.198;27.918;2023-04-03T08:20:02;6.57;;;4.70;;
6598;SDS011;3335;43.198;27.918;2023-04-03T08:22:29;9.97;;;5.20;;
6598;SDS011;3335;43.198;27.918;2023-04-03T08:24:57;9.20;;;4.50;;
6598;SDS011;3335;43.198;27.918;2023-04-03T08:27:24;9.80;;;5.13;;
6598;SDS011;3335;43.198;27.918;2023-04-03T08:29:52;11.60;;;4.53;;
6598;SDS011;3335;43.198;27.918;2023-04-03T08:32:19;9.67;;;4.67;;
6598;SDS011;3335;43.198;27.918;2023-04-03T08:34:47;8.37;;;5.10;;
6598;SDS011;3335;43.198;27.918;2023-04-03T08:37:14;8.87;;;5.10;;
6598;SDS011;3335;43.198;27.918;2023-04-03T08:39:42;11.87;;;5.00;;
6598;SDS011;3335;43.198;27.918;2023-04-03T08:42:14;9.20;;;5.00;;
6598;SDS011;3335;43.198;27.918;2023-04-03T08:44:46;10.17;;;4.67;;
6598;SDS011;3335;43.198;27.918;2023-04-03T08:47:21;7.10;;;4.83;;
6598;SDS011;3335;43.198;27.918;2023-04-03T08:49:51;7.17;;;5.17;;
6598;SDS011;3335;43.198;27.918;2023-04-03T08:52:24;18.37;;;5.70;;
6598;SDS011;3335;43.198;27.918;2023-04-03T08:54:58;10.67;;;5.07;;
6598;SDS011;3335;43.198;27.918;2023-04-03T08:57:30;10.30;;;4.70;;
6598;SDS011;3335;43.198;27.918;2023-04-03T09:00:00;9.37;;;5.03;;
6598;SDS011;3335;43.198;27.918;2023-04-03T09:02:30;10.53;;;4.47;;
6598;SDS011;3335;43.198;27.918;2023-04-03T09:05:01;7.57;;;4.83;;
6598;SDS011;3335;43.198;27.918;2023-04-03T09:07:31;14.90;;;5.17;;
6598;SDS011;3335;43.198;27.918;2023-04-03T09:10:05;9.53;;;5.40;;
6598;SDS011;3335;43.198;27.918;2023-04-03T09:12:37;11.70;;;4.97;;
6598;SDS011;3335;43.198;27.918;2023-04-03T09:15:09;6.80;;;4.70;;
6598;SDS011;3335;43.198;27.918;2023-04-03T09:17:45;9.50;;;4.73;;
6598;SDS011;3335;43.198;27.918;2023-04-03T09:20:23;9.47;;;5.37;;
6598;SDS011;3335;43.198;27.918;2023-04-03T09:22:55;7.40;;;4.93;;
6598;SDS011;3335;43.198;27.918;2023-04-03T09:25:23;7.87;;;5.40;;
6598;SDS011;3335;43.198;27.918;2023-04-03T09:27:54;6.73;;;5.17;;
6598;SDS011;3335;43.198;27.918;2023-04-03T09:30:23;10.50;;;5.10;;
6598;SDS011;3335;43.198;27.918;2023-04-03T09:32:52;7.70;;;5.50;;
6598;SDS011;3335;43.198;27.918;2023-04-03T09:35:21;10.83;;;5.30;;
6598;SDS011;3335;43.198;27.918;2023-04-03T09:37:51;11.90;;;5.43;;
6598;SDS011;3335;43.198;27.918;2023-04-03T09:40:35;8.83;;;5.47;;
6598;SDS011;3335;43.198;27.918;2023-04-03T09:45:51;10.93;;;4.53;;
6598;SDS011;3335;43.198;27.918;2023-04-03T09:48:20;6.37;;;4.83;;
6598;SDS011;3335;43.198;27.918;2023-04-03T09:50:58;6.43;;;4.83;;
6598;SDS011;3335;43.198;27.918;2023-04-03T09:53:33;8.50;;;5.40;;
6598;SDS011;3335;43.198;27.918;2023-04-03T09:56:03;6.47;;;4.80;;
6598;SDS011;3335;43.198;27.918;2023-04-03T09:58:37;7.03;;;5.17;;
6598;SDS011;3335;43.198;27.918;2023-04-03T10:01:09;6.93;;;5.13;;
6598;SDS011;3335;43.198;27.918;2023-04-03T10:03:50;7.37;;;5.40;;
6598;SDS011;3335;43.198;27.918;2023-04-03T10:06:31;6.23;;;5.03;;
6598;SDS011;3335;43.198;27.918;2023-04-03T10:09:01;11.00;;;6.03;;
6598;SDS011;3335;43.198;27.918;2023-04-03T10:11:30;9.40;;;5.80;;
6598;SDS011;3335;43.198;27.918;2023-04-03T10:13:59;8.70;;;6.40;;
6598;SDS011;3335;43.198;27.918;2023-04-03T10:16:29;10.93;;;6.50;;
6598;SDS011;3335;43.198;27.918;2023-04-03T10:19:04;13.03;;;6.30;;
6598;SDS011;3335;43.198;27.918;2023-04-03T10:21:46;11.97;;;6.40;;
6598;SDS011;3335;43.198;27.918;2023-04-03T10:24:18;9.20;;;6.67;;
6598;SDS011;3335;43.198;27.918;2023-04-03T10:26:51;8.67;;;6.00;;
6598;SDS011;3335;43.198;27.918;2023-04-03T10:29:31;8.80;;;5.73;;
6598;SDS011;3335;43.198;27.918;2023-04-03T10:32:11;9.10;;;6.37;;
6598;SDS011;3335;43.198;27.918;2023-04-03T10:34:50;7.90;;;5.57;;
6598;SDS011;3335;43.198;27.918;2023-04-03T10:37:23;8.03;;;5.10;;
6598;SDS011;3335;43.198;27.918;2023-04-03T10:39:54;8.80;;;4.70;;
6598;SDS011;3335;43.198;27.918;2023-04-03T10:42:26;6.70;;;4.30;;
6598;SDS011;3335;43.198;27.918;2023-04-03T10:45:18;5.40;;;4.27;;
6598;SDS011;3335;43.198;27.918;2023-04-03T10:47:53;4.90;;;3.63;;
6598;SDS011;3335;43.198;27.918;2023-04-03T10:50:31;7.73;;;4.30;;
6598;SDS011;3335;43.198;27.918;2023-04-03T10:53:13;5.37;;;3.57;;
6598;SDS011;3335;43.198;27.918;2023-04-03T10:55:49;5.67;;;4.30;;
6598;SDS011;3335;43.198;27.918;2023-04-03T10:58:24;7.70;;;4.60;;
6598;SDS011;3335;43.198;27.918;2023-04-03T11:00:59;7.00;;;4.57;;
6598;SDS011;3335;43.198;27.918;2023-04-03T11:03:32;6.90;;;4.47;;
6598;SDS011;3335;43.198;27.918;2023-04-03T11:06:04;5.57;;;4.50;;
6598;SDS011;3335;43.198;27.918;2023-04-03T11:08:35;7.23;;;4.53;;
6598;SDS011;3335;43.198;27.918;2023-04-03T11:11:09;6.87;;;3.90;;
6598;SDS011;3335;43.198;27.918;2023-04-03T11:13:40;11.53;;;4.60;;
6598;SDS011;3335;43.198;27.918;2023-04-03T11:16:12;7.40;;;4.70;;
6598;SDS011;3335;43.198;27.918;2023-04-03T11:18:46;12.10;;;4.20;;
6598;SDS011;3335;43.198;27.918;2023-04-03T11:21:19;8.83;;;4.37;;
6598;SDS011;3335;43.198;27.918;2023-04-03T11:23:49;8.60;;;4.07;;
6598;SDS011;3335;43.198;27.918;2023-04-03T11:26:19;6.33;;;4.03;;
6598;SDS011;3335;43.198;27.918;2023-04-03T11:28:51;6.50;;;4.53;;
6598;SDS011;3335;43.198;27.918;2023-04-03T11:31:28;6.10;;;3.93;;
6598;SDS011;3335;43.198;27.918;2023-04-03T11:34:13;6.90;;;3.60;;
6598;SDS011;3335;43.198;27.918;2023-04-03T11:36:50;7.33;;;4.13;;
6598;SDS011;3335;43.198;27.918;2023-04-03T11:39:22;7.67;;;4.67;;
6598;SDS011;3335;43.198;27.918;2023-04-03T11:41:52;7.63;;;4.50;;
6598;SDS011;3335;43.198;27.918;2023-04-03T11:44:29;9.23;;;4.17;;
6598;SDS011;3335;43.198;27.918;2023-04-03T11:47:03;10.70;;;4.30;;
6598;SDS011;3335;43.198;27.918;2023-04-03T11:58:18;8.97;;;5.20;;
6598;SDS011;3335;43.198;27.918;2023-04-03T12:12:42;10.97;;;5.90;;
6598;SDS011;3335;43.198;27.918;2023-04-03T12:21:07;11.40;;;6.03;;
6598;SDS011;3335;43.198;27.918;2023-04-03T12:23:36;9.87;;;6.03;;
6598;SDS011;3335;43.198;27.918;2023-04-03T12:26:24;10.47;;;6.77;;
6598;SDS011;3335;43.198;27.918;2023-04-03T12:28:53;15.63;;;7.30;;
6598;SDS011;3335;43.198;27.918;2023-04-03T12:31:22;13.87;;;7.70;;
6598;SDS011;3335;43.198;27.918;2023-04-03T12:34:14;13.80;;;7.37;;
6598;SDS011;3335;43.198;27.918;2023-04-03T12:36:58;15.90;;;7.70;;
6598;SDS011;3335;43.198;27.918;2023-04-03T12:39:45;12.17;;;6.67;;
6598;SDS011;3335;43.198;27.918;2023-04-03T12:42:40;17.87;;;7.73;;
6598;SDS011;3335;43.198;27.918;2023-04-03T12:45:23;14.60;;;7.50;;
6598;SDS011;3335;43.198;27.918;2023-04-03T12:47:52;11.53;;;7.47;;
6598;SDS011;3335;43.198;27.918;2023-04-03T12:50:21;10.53;;;7.20;;
6598;SDS011;3335;43.198;27.918;2023-04-03T12:52:57;11.63;;;6.63;;
6598;SDS011;3335;43.198;27.918;2023-04-03T12:55:29;10.13;;;6.53;;
6598;SDS011;3335;43.198;27.918;2023-04-03T12:57:56;11.83;;;6.60;;
6598;SDS011;3335;43.198;27.918;2023-04-03T13:00:33;10.10;;;6.53;;
6598;SDS011;3335;43.198;27.918;2023-04-03T13:03:04;14.90;;;6.43;;
6598;SDS011;3335;43.198;27.918;2023-04-03T13:05:32;16.10;;;6.73;;
6598;SDS011;3335;43.198;27.918;2023-04-03T13:08:02;12.00;;;6.57;;
6598;SDS011;3335;43.198;27.918;2023-04-03T13:10:32;8.83;;;5.33;;
6598;SDS011;3335;43.198;27.918;2023-04-03T13:13:15;8.93;;;5.70;;
6598;SDS011;3335;43.198;27.918;2023-04-03T13:15:43;11.07;;;6.70;;
6598;SDS011;3335;43.198;27.918;2023-04-03T13:18:23;12.43;;;6.37;;
6598;SDS011;3335;43.198;27.918;2023-04-03T13:20:52;10.23;;;6.63;;
6598;SDS011;3335;43.198;27.918;2023-04-03T13:23:23;10.47;;;6.50;;
6598;SDS011;3335;43.198;27.918;2023-04-03T13:25:51;11.73;;;5.63;;
6598;SDS011;3335;43.198;27.918;2023-04-03T13:28:20;12.57;;;6.60;;
6598;SDS011;3335;43.198;27.918;2023-04-03T13:30:59;14.20;;;6.90;;
6598;SDS011;3335;43.198;27.918;2023-04-03T13:33:31;14.13;;;6.37;;
6598;SDS011;3335;43.198;27.918;2023-04-03T13:36:03;8.67;;;5.83;;
6598;SDS011;3335;43.198;27.918;2023-04-03T13:38:32;9.20;;;6.00;;
6598;SDS011;3335;43.198;27.918;2023-04-03T13:41:04;11.63;;;5.80;;
6598;SDS011;3335;43.198;27.918;2023-04-03T13:43:35;11.20;;;5.70;;
6598;SDS011;3335;43.198;27.918;2023-04-03T13:46:05;12.17;;;5.47;;
6598;SDS011;3335;43.198;27.918;2023-04-03T13:48:49;12.53;;;5.93;;
6598;SDS011;3335;43.198;27.918;2023-04-03T13:51:19;9.60;;;5.70;;
6598;SDS011;3335;43.198;27.918;2023-04-03T13:53:49;15.37;;;5.73;;
6598;SDS011;3335;43.198;27.918;2023-04-03T13:56:23;9.93;;;6.30;;
6598;SDS011;3335;43.198;27.918;2023-04-03T13:58:54;12.80;;;6.03;;
6598;SDS011;3335;43.198;27.918;2023-04-03T14:01:34;10.97;;;5.87;;
6598;SDS011;3335;43.198;27.918;2023-04-03T14:04:11;8.17;;;5.30;;
6598;SDS011;3335;43.198;27.918;2023-04-03T14:06:43;12.67;;;6.13;;
6598;SDS011;3335;43.198;27.918;2023-04-03T14:09:10;10.97;;;5.57;;
6598;SDS011;3335;43.198;27.918;2023-04-03T14:11:39;8.90;;;5.67;;
6598;SDS011;3335;43.198;27.918;2023-04-03T14:14:09;10.57;;;5.73;;
6598;SDS011;3335;43.198;27.918;2023-04-03T14:16:41;11.97;;;5.57;;
6598;SDS011;3335;43.198;27.918;2023-04-03T14:19:14;9.07;;;5.47;;
6598;SDS011;3335;43.198;27.918;2023-04-03T14:21:45;11.90;;;5.00;;
6598;SDS011;3335;43.198;27.918;2023-04-03T14:24:12;9.67;;;5.40;;
6598;SDS011;3335;43.198;27.918;2023-04-03T14:26:40;8.43;;;5.27;;
6598;SDS011;3335;43.198;27.918;2023-04-03T14:29:09;8.30;;;5.20;;
6598;SDS011;3335;43.198;27.918;2023-04-03T14:31:37;9.70;;;5.17;;
6598;SDS011;3335;43.198;27.918;2023-04-03T14:34:04;11.47;;;5.80;;
6598;SDS011;3335;43.198;27.918;2023-04-03T14:36:33;8.13;;;5.90;;
6598;SDS011;3335;43.198;27.918;2023-04-03T14:39:02;8.80;;;5.67;;
6598;SDS011;3335;43.198;27.918;2023-04-03T14:41:30;10.60;;;5.57;;
6598;SDS011;3335;43.198;27.918;2023-04-03T14:43:58;11.30;;;5.73;;
6598;SDS011;3335;43.198;27.918;2023-04-03T14:46:26;9.53;;;5.37;;
6598;SDS011;3335;43.198;27.918;2023-04-03T14:48:56;10.57;;;6.00;;
6598;SDS011;3335;43.198;27.918;2023-04-03T14:51:26;11.90;;;5.80;;
6598;SDS011;3335;43.198;27.918;2023-04-03T14:53:53;9.97;;;6.00;;
6598;SDS011;3335;43.198;27.918;2023-04-03T14:56:21;10.43;;;6.33;;
6598;SDS011;3335;43.198;27.918;2023-04-03T14:58:52;11.10;;;6.27;;
6598;SDS011;3335;43.198;27.918;2023-04-03T15:01:24;10.70;;;7.43;;
6598;SDS011;3335;43.198;27.918;2023-04-03T15:03:51;18.13;;;9.10;;
6598;SDS011;3335;43.198;27.918;2023-04-03T15:06:18;15.47;;;8.23;;
6598;SDS011;3335;43.198;27.918;2023-04-03T15:08:46;13.67;;;7.90;;
6598;SDS011;3335;43.198;27.918;2023-04-03T15:11:14;14.03;;;7.47;;
6598;SDS011;3335;43.198;27.918;2023-04-03T15:13:41;15.93;;;7.47;;
6598;SDS011;3335;43.198;27.918;2023-04-03T15:16:11;15.83;;;7.10;;
6598;SDS011;3335;43.198;27.918;2023-04-03T15:18:44;13.83;;;7.13;;
6598;SDS011;3335;43.198;27.918;2023-04-03T15:21:12;12.63;;;6.20;;
6598;SDS011;3335;43.198;27.918;2023-04-03T15:23:40;11.27;;;5.87;;
6598;SDS011;3335;43.198;27.918;2023-04-03T15:26:07;12.47;;;6.33;;
6598;SDS011;3335;43.198;27.918;2023-04-03T15:28:35;14.67;;;6.53;;
6598;SDS011;3335;43.198;27.918;2023-04-03T15:31:04;10.20;;;6.20;;
6598;SDS011;3335;43.198;27.918;2023-04-03T15:33:32;12.53;;;6.00;;
6598;SDS011;3335;43.198;27.918;2023-04-03T15:36:02;10.47;;;5.90;;
6598;SDS011;3335;43.198;27.918;2023-04-03T15:38:30;9.43;;;6.23;;
6598;SDS011;3335;43.198;27.918;2023-04-03T15:40:57;13.13;;;5.90;;